sensor_id;sensor_type;location;lat;lon;timestamp;pressure;altitude;pressure_sealevel;temperature;humidity
65760;BME280;52496;51.082;5.066;2023-04-22T00:00:37;100654.66;;;6.81;100.00
65760;BME280;52496;51.082;5.066;2023-04-22T00:03:08;100663.66;;;6.80;100.00
65760;BME280;52496;51.082;5.066;2023-04-22T00:05:40;100659.16;;;6.80;100.00
65760;BME280;52496;51.082;5.066;2023-04-22T00:08:11;100657.19;;;6.82;100.00
65760;BME280;52496;51.082;5.066;2023-04-22T00:10:41;100657.81;;;6.84;100.00
65760;BME280;52496;51.082;5.066;2023-04-22T00:13:12;100655.00;;;6.86;100.00
65760;BME280;52496;51.082;5.066;2023-04-22T00:15:43;100666.97;;;6.90;100.00
65760;BME280;52496;51.082;5.066;2023-04-22T00:18:13;100660.69;;;6.91;100.00
65760;BME280;52496;51.082;5.066;2023-04-22T00:20:44;100662.66;;;6.89;100.00
65760;BME280;52496;51.082;5.066;2023-04-22T00:23:15;100672.47;;;6.88;100.00
65760;BME280;52496;51.082;5.066;2023-04-22T00:25:45;100667.97;;;6.89;100.00
65760;BME280;52496;51.082;5.066;2023-04-22T00:28:16;100672.97;;;6.92;100.00
65760;BME280;52496;51.082;5.066;2023-04-22T00:30:47;100671.94;;;6.93;100.00
65760;BME280;52496;51.082;5.066;2023-04-22T00:33:17;100661.16;;;6.95;100.00
65760;BME280;52496;51.082;5.066;2023-04-22T00:35:48;100668.97;;;6.96;100.00
65760;BME280;52496;51.082;5.066;2023-04-22T00:38:18;100669.78;;;6.97;100.00
65760;BME280;52496;51.082;5.066;2023-04-22T00:40:49;100665.34;;;6.97;100.00
65760;BME280;52496;51.082;5.066;2023-04-22T00:43:19;100663.50;;;6.98;100.00
65760;BME280;52496;51.082;5.066;2023-04-22T00:45:50;100661.66;;;6.98;100.00
65760;BME280;52496;51.082;5.066;2023-04-22T00:48:21;100664.31;;;6.98;100.00
65760;BME280;52496;51.082;5.066;2023-04-22T00:50:51;100673.13;;;6.99;100.00
65760;BME280;52496;51.082;5.066;2023-04-22T00:53:22;100663.66;;;6.96;100.00
65760;BME280;52496;51.082;5.066;2023-04-22T00:55:53;100664.66;;;6.95;100.00
65760;BME280;52496;51.082;5.066;2023-04-22T00:58:27;100657.50;;;6.96;100.00
65760;BME280;52496;51.082;5.066;2023-04-22T01:00:58;100668.97;;;6.96;100.00
65760;BME280;52496;51.082;5.066;2023-04-22T01:03:28;100669.78;;;6.97;100.00
65760;BME280;52496;51.082;5.066;2023-04-22T01:06:00;100670.47;;;6.99;100.00
65760;BME280;52496;51.082;5.066;2023-04-22T01:08:30;100666.81;;;7.00;100.00
65760;BME280;52496;51.082;5.066;2023-04-22T01:11:01;100674.78;;;7.00;100.00
65760;BME280;52496;51.082;5.066;2023-04-22T01:13:32;100669.47;;;7.00;100.00
65760;BME280;52496;51.082;5.066;2023-04-22T01:16:03;100671.16;;;7.01;100.00
65760;BME280;52496;51.082;5.066;2023-04-22T01:18:35;100664.16;;;7.00;100.00
65760;BME280;52496;51.082;5.066;2023-04-22T01:21:06;100660.84;;;6.98;100.00
65760;BME280;52496;51.082;5.066;2023-04-22T01:23:37;100660.84;;;6.98;100.00
65760;BME280;52496;51.082;5.066;2023-04-22T01:26:07;100666.16;;;6.98;100.00
65760;BME280;52496;51.082;5.066;2023-04-22T01:28:39;100661.00;;;6.96;100.00
65760;BME280;52496;51.082;5.066;2023-04-22T01:31:10;100661.00;;;6.96;100.00
65760;BME280;52496;51.082;5.066;2023-04-22T01:33:41;100649.88;;;6.93;100.00
65760;BME280;52496;51.082;5.066;2023-04-22T01:36:13;100657.00;;;6.92;100.00
65760;BME280;52496;51.082;5.066;2023-04-22T01:38:44;100652.84;;;6.89;100.00
65760;BME280;52496;51.082;5.066;2023-04-22T01:41:14;100661.84;;;6.88;100.00
65760;BME280;52496;51.082;5.066;2023-04-22T01:43:47;100658.50;;;6.86;100.00
65760;BME280;52496;51.082;5.066;2023-04-22T01:46:17;100662.16;;;6.85;100.00
65760;BME280;52496;51.082;5.066;2023-04-22T01:48:48;100652.50;;;6.84;100.00
65760;BME280;52496;51.082;5.066;2023-04-22T01:51:21;100649.84;;;6.84;100.00
65760;BME280;52496;51.082;5.066;2023-04-22T01:53:52;100647.19;;;6.84;100.00
65760;BME280;52496;51.082;5.066;2023-04-22T01:56:23;100649.19;;;6.82;100.00
65760;BME280;52496;51.082;5.066;2023-04-22T01:58:53;100653.50;;;6.83;100.00
65760;BME280;52496;51.082;5.066;2023-04-22T02:01:24;100645.72;;;6.82;100.00
65760;BME280;52496;51.082;5.066;2023-04-22T02:03:55;100651.03;;;6.82;100.00
65760;BME280;52496;51.082;5.066;2023-04-22T02:06:25;100646.88;;;6.79;100.00
65760;BME280;52496;51.082;5.066;2023-04-22T02:08:56;100650.50;;;6.78;100.00
65760;BME280;52496;51.082;5.066;2023-04-22T02:11:27;100646.88;;;6.79;100.00
65760;BME280;52496;51.082;5.066;2023-04-22T02:13:58;100639.88;;;6.78;100.00
65760;BME280;52496;51.082;5.066;2023-04-22T02:16:28;100636.25;;;6.79;100.00
65760;BME280;52496;51.082;5.066;2023-04-22T02:18:58;100634.41;;;6.80;100.00
65760;BME280;52496;51.082;5.066;2023-04-22T02:21:30;100632.56;;;6.80;100.00
65760;BME280;52496;51.082;5.066;2023-04-22T02:24:02;100634.56;;;6.78;100.00
65760;BME280;52496;51.082;5.066;2023-04-22T02:26:32;100623.09;;;6.78;100.00
65760;BME280;52496;51.082;5.066;2023-04-22T02:29:04;100638.72;;;6.81;100.00
65760;BME280;52496;51.082;5.066;2023-04-22T02:31:35;100630.09;;;6.79;100.00
65760;BME280;52496;51.082;5.066;2023-04-22T02:34:05;100630.91;;;6.79;100.00
65760;BME280;52496;51.082;5.066;2023-04-22T02:36:36;100638.72;;;6.81;100.00
65760;BME280;52496;51.082;5.066;2023-04-22T02:39:07;100637.88;;;6.80;100.00
65760;BME280;52496;51.082;5.066;2023-04-22T02:41:37;100634.41;;;6.80;100.00
65760;BME280;52496;51.082;5.066;2023-04-22T02:44:08;100630.09;;;6.79;100.00
65760;BME280;52496;51.082;5.066;2023-04-22T02:46:38;100636.25;;;6.79;100.00
65760;BME280;52496;51.082;5.066;2023-04-22T02:49:09;100621.94;;;6.80;100.00
65760;BME280;52496;51.082;5.066;2023-04-22T02:51:39;100621.78;;;6.82;100.00
65760;BME280;52496;51.082;5.066;2023-04-22T02:54:10;100627.25;;;6.80;100.00
65760;BME280;52496;51.082;5.066;2023-04-22T02:56:40;100617.44;;;6.81;100.00
65760;BME280;52496;51.082;5.066;2023-04-22T02:59:11;100621.78;;;6.82;100.00
65760;BME280;52496;51.082;5.066;2023-04-22T03:01:41;100629.09;;;6.80;100.00
65760;BME280;52496;51.082;5.066;2023-04-22T03:04:12;100611.66;;;6.77;100.00
65760;BME280;52496;51.082;5.066;2023-04-22T03:06:43;100613.63;;;6.75;100.00
65760;BME280;52496;51.082;5.066;2023-04-22T03:09:13;100611.66;;;6.77;100.00
65760;BME280;52496;51.082;5.066;2023-04-22T03:11:44;100604.69;;;6.76;100.00
65760;BME280;52496;51.082;5.066;2023-04-22T03:14:15;100600.00;;;6.78;100.00
65760;BME280;52496;51.082;5.066;2023-04-22T03:16:46;100592.88;;;6.79;100.00
65760;BME280;52496;51.082;5.066;2023-04-22T03:19:16;100582.25;;;6.79;100.00
65760;BME280;52496;51.082;5.066;2023-04-22T03:21:47;100584.72;;;6.80;100.00
65760;BME280;52496;51.082;5.066;2023-04-22T03:24:17;100589.91;;;6.82;100.00
65760;BME280;52496;51.082;5.066;2023-04-22T03:26:48;100587.25;;;6.82;100.00
65760;BME280;52496;51.082;5.066;2023-04-22T03:29:18;100592.56;;;6.82;100.00
65760;BME280;52496;51.082;5.066;2023-04-22T03:31:49;100583.72;;;6.81;100.00
65760;BME280;52496;51.082;5.066;2023-04-22T03:34:19;100577.44;;;6.82;100.00
65760;BME280;52496;51.082;5.066;2023-04-22T03:36:50;100579.09;;;6.83;100.00
65760;BME280;52496;51.082;5.066;2023-04-22T03:39:20;100575.41;;;6.84;100.00
65760;BME280;52496;51.082;5.066;2023-04-22T03:41:51;100573.78;;;6.83;100.00
65760;BME280;52496;51.082;5.066;2023-04-22T03:44:21;100562.13;;;6.84;100.00
65760;BME280;52496;51.082;5.066;2023-04-22T03:46:52;100565.66;;;6.85;100.00
65760;BME280;52496;51.082;5.066;2023-04-22T03:49:23;100564.47;;;6.87;100.00
65760;BME280;52496;51.082;5.066;2023-04-22T03:51:53;100557.16;;;6.89;100.00
65760;BME280;52496;51.082;5.066;2023-04-22T03:54:25;100549.84;;;6.92;100.00
65760;BME280;52496;51.082;5.066;2023-04-22T03:56:55;100553.16;;;6.94;100.00
65760;BME280;52496;51.082;5.066;2023-04-22T03:59:27;100551.16;;;6.96;100.00
65760;BME280;52496;51.082;5.066;2023-04-22T04:01:58;100554.84;;;6.95;100.00
65760;BME280;52496;51.082;5.066;2023-04-22T04:04:28;100559.16;;;6.96;100.00
65760;BME280;52496;51.082;5.066;2023-04-22T04:06:59;100549.53;;;6.95;100.00
65760;BME280;52496;51.082;5.066;2023-04-22T04:09:29;100547.84;;;6.94;100.00
65760;BME280;52496;51.082;5.066;2023-04-22T04:12:00;100546.19;;;6.93;100.00
65760;BME280;52496;51.082;5.066;2023-04-22T04:14:32;100550.69;;;6.92;100.00
65760;BME280;52496;51.082;5.066;2023-04-22T04:17:02;100563.16;;;6.92;100.00
65760;BME280;52496;51.082;5.066;2023-04-22T04:19:33;100562.13;;;6.93;100.00
65760;BME280;52496;51.082;5.066;2023-04-22T04:22:04;100563.28;;;6.90;100.00
65760;BME280;52496;51.082;5.066;2023-04-22T04:24:34;100556.31;;;6.89;100.00
65760;BME280;52496;51.082;5.066;2023-04-22T04:27:05;100553.81;;;6.87;100.00
65760;BME280;52496;51.082;5.066;2023-04-22T04:29:36;100566.97;;;6.89;100.00
65760;BME280;52496;51.082;5.066;2023-04-22T04:32:07;100557.16;;;6.89;100.00
65760;BME280;52496;51.082;5.066;2023-04-22T04:34:38;100562.66;;;6.88;100.00
65760;BME280;52496;51.082;5.066;2023-04-22T04:37:09;100558.50;;;6.85;100.00
65760;BME280;52496;51.082;5.066;2023-04-22T04:39:41;100550.53;;;6.85;100.00
65760;BME280;52496;51.082;5.066;2023-04-22T04:42:12;100545.53;;;6.82;100.00
65760;BME280;52496;51.082;5.066;2023-04-22T04:44:43;100542.06;;;6.82;100.00
65760;BME280;52496;51.082;5.066;2023-04-22T04:47:14;100536.56;;;6.83;100.00
65760;BME280;52496;51.082;5.066;2023-04-22T04:49:45;100535.56;;;6.84;100.00
65760;BME280;52496;51.082;5.066;2023-04-22T04:52:16;100532.56;;;6.87;100.00
65760;BME280;52496;51.082;5.066;2023-04-22T04:54:47;100533.91;;;6.92;100.00
65760;BME280;52496;51.082;5.066;2023-04-22T04:57:17;100544.19;;;6.95;100.00
65760;BME280;52496;51.082;5.066;2023-04-22T04:59:48;100541.22;;;6.98;100.00
65760;BME280;52496;51.082;5.066;2023-04-22T05:02:18;100543.53;;;7.01;100.00
65760;BME280;52496;51.082;5.066;2023-04-22T05:04:49;100550.00;;;7.06;100.00
65760;BME280;52496;51.082;5.066;2023-04-22T05:07:19;100540.84;;;7.09;100.00
65760;BME280;52496;51.082;5.066;2023-04-22T05:09:50;100544.66;;;7.15;100.00
65760;BME280;52496;51.082;5.066;2023-04-22T05:12:20;100543.34;;;7.19;100.00
65760;BME280;52496;51.082;5.066;2023-04-22T05:14:52;100543.16;;;7.20;100.00
65760;BME280;52496;51.082;5.066;2023-04-22T05:17:22;100544.50;;;7.24;100.00
65760;BME280;52496;51.082;5.066;2023-04-22T05:19:53;100530.84;;;7.27;100.00
65760;BME280;52496;51.082;5.066;2023-04-22T05:22:23;100529.31;;;7.33;100.00
65760;BME280;52496;51.082;5.066;2023-04-22T05:24:54;100527.16;;;7.37;100.00
65760;BME280;52496;51.082;5.066;2023-04-22T05:27:24;100532.97;;;7.40;100.00
65760;BME280;52496;51.082;5.066;2023-04-22T05:29:55;100535.09;;;7.45;100.00
65760;BME280;52496;51.082;5.066;2023-04-22T05:32:25;100536.72;;;7.54;100.00
65760;BME280;52496;51.082;5.066;2023-04-22T05:34:56;100538.69;;;7.60;100.00
65760;BME280;52496;51.082;5.066;2023-04-22T05:37:27;100531.72;;;7.67;100.00
65760;BME280;52496;51.082;5.066;2023-04-22T05:39:57;100539.28;;;7.78;100.00
65760;BME280;52496;51.082;5.066;2023-04-22T05:42:28;100536.44;;;7.88;100.00
65760;BME280;52496;51.082;5.066;2023-04-22T05:44:58;100547.34;;;8.01;100.00
65760;BME280;52496;51.082;5.066;2023-04-22T05:47:29;100537.13;;;8.13;100.00
65760;BME280;52496;51.082;5.066;2023-04-22T05:50:00;100535.06;;;8.23;100.00
65760;BME280;52496;51.082;5.066;2023-04-22T05:52:30;100541.81;;;8.34;100.00
65760;BME280;52496;51.082;5.066;2023-04-22T05:55:02;100544.91;;;8.46;100.00
65760;BME280;52496;51.082;5.066;2023-04-22T05:57:33;100536.50;;;8.57;100.00
65760;BME280;52496;51.082;5.066;2023-04-22T06:00:07;100539.56;;;8.69;100.00
65760;BME280;52496;51.082;5.066;2023-04-22T06:02:39;100544.28;;;8.82;100.00
65760;BME280;52496;51.082;5.066;2023-04-22T06:05:09;100537.72;;;8.92;100.00
65760;BME280;52496;51.082;5.066;2023-04-22T06:07:40;100527.81;;;9.01;100.00
65760;BME280;52496;51.082;5.066;2023-04-22T06:10:10;100530.56;;;9.08;100.00
65760;BME280;52496;51.082;5.066;2023-04-22T06:12:41;100530.50;;;9.16;100.00
65760;BME280;52496;51.082;5.066;2023-04-22T06:15:11;100533.88;;;9.25;100.00
65760;BME280;52496;51.082;5.066;2023-04-22T06:17:42;100536.09;;;9.36;100.00
65760;BME280;52496;51.082;5.066;2023-04-22T06:20:13;100531.28;;;9.46;100.00
65760;BME280;52496;51.082;5.066;2023-04-22T06:22:44;100532.50;;;9.58;100.00
65760;BME280;52496;51.082;5.066;2023-04-22T06:25:15;100532.69;;;9.72;100.00
65760;BME280;52496;51.082;5.066;2023-04-22T06:27:45;100531.19;;;9.84;100.00
65760;BME280;52496;51.082;5.066;2023-04-22T06:30:16;100524.50;;;9.95;100.00
65760;BME280;52496;51.082;5.066;2023-04-22T06:32:46;100517.03;;;10.05;100.00
65760;BME280;52496;51.082;5.066;2023-04-22T06:35:17;100514.06;;;10.15;100.00
65760;BME280;52496;51.082;5.066;2023-04-22T06:37:48;100507.22;;;10.27;100.00
65760;BME280;52496;51.082;5.066;2023-04-22T06:40:18;100508.38;;;10.39;100.00
65760;BME280;52496;51.082;5.066;2023-04-22T06:42:49;100522.88;;;10.51;100.00
65760;BME280;52496;51.082;5.066;2023-04-22T06:45:19;100528.09;;;10.60;100.00
65760;BME280;52496;51.082;5.066;2023-04-22T06:47:53;100524.31;;;10.75;100.00
65760;BME280;52496;51.082;5.066;2023-04-22T06:50:23;100520.34;;;10.93;100.00
65760;BME280;52496;51.082;5.066;2023-04-22T06:52:54;100519.84;;;11.11;100.00
65760;BME280;52496;51.082;5.066;2023-04-22T06:55:25;100510.44;;;11.21;100.00
65760;BME280;52496;51.082;5.066;2023-04-22T06:57:55;100514.19;;;11.27;100.00
65760;BME280;52496;51.082;5.066;2023-04-22T07:00:26;100505.56;;;11.32;100.00
65760;BME280;52496;51.082;5.066;2023-04-22T07:02:57;100501.09;;;11.39;100.00
65760;BME280;52496;51.082;5.066;2023-04-22T07:05:28;100516.38;;;11.52;100.00
65760;BME280;52496;51.082;5.066;2023-04-22T07:07:58;100518.53;;;11.69;100.00
65760;BME280;52496;51.082;5.066;2023-04-22T07:10:29;100519.81;;;11.80;100.00
65760;BME280;52496;51.082;5.066;2023-04-22T07:12:59;100524.84;;;11.97;100.00
65760;BME280;52496;51.082;5.066;2023-04-22T07:15:30;100522.03;;;12.18;100.00
65760;BME280;52496;51.082;5.066;2023-04-22T07:18:00;100519.59;;;12.36;100.00
65760;BME280;52496;51.082;5.066;2023-04-22T07:20:32;100524.34;;;12.54;100.00
65760;BME280;52496;51.082;5.066;2023-04-22T07:23:03;100535.31;;;12.66;100.00
65760;BME280;52496;51.082;5.066;2023-04-22T07:25:33;100524.97;;;12.76;100.00
65760;BME280;52496;51.082;5.066;2023-04-22T07:28:04;100525.38;;;12.86;100.00
65760;BME280;52496;51.082;5.066;2023-04-22T07:30:34;100519.41;;;12.98;100.00
65760;BME280;52496;51.082;5.066;2023-04-22T07:33:05;100521.44;;;13.16;100.00
65760;BME280;52496;51.082;5.066;2023-04-22T07:35:36;100517.50;;;13.31;100.00
65760;BME280;52496;51.082;5.066;2023-04-22T07:38:07;100506.28;;;13.48;100.00
65760;BME280;52496;51.082;5.066;2023-04-22T07:40:37;100500.28;;;13.59;100.00
65760;BME280;52496;51.082;5.066;2023-04-22T07:43:08;100486.00;;;13.65;100.00
65760;BME280;52496;51.082;5.066;2023-04-22T07:45:38;100486.38;;;13.75;100.00
65760;BME280;52496;51.082;5.066;2023-04-22T07:48:09;100476.41;;;13.83;100.00
65760;BME280;52496;51.082;5.066;2023-04-22T07:50:39;100475.31;;;13.97;100.00
65760;BME280;52496;51.082;5.066;2023-04-22T07:53:10;100477.28;;;14.08;100.00
65760;BME280;52496;51.082;5.066;2023-04-22T07:55:41;100483.38;;;14.29;100.00
65760;BME280;52496;51.082;5.066;2023-04-22T07:58:12;100474.75;;;14.52;100.00
65760;BME280;52496;51.082;5.066;2023-04-22T08:00:43;100464.97;;;14.82;100.00
65760;BME280;52496;51.082;5.066;2023-04-22T08:03:14;100465.47;;;15.16;100.00
65760;BME280;52496;51.082;5.066;2023-04-22T08:05:44;100459.69;;;15.49;100.00
65760;BME280;52496;51.082;5.066;2023-04-22T08:08:15;100451.88;;;15.78;100.00
65760;BME280;52496;51.082;5.066;2023-04-22T08:10:46;100438.94;;;15.98;100.00
65760;BME280;52496;51.082;5.066;2023-04-22T08:13:16;100432.41;;;16.18;100.00
65760;BME280;52496;51.082;5.066;2023-04-22T08:15:48;100442.28;;;16.24;95.13
65760;BME280;52496;51.082;5.066;2023-04-22T08:18:20;100455.09;;;16.28;100.00
65760;BME280;52496;51.082;5.066;2023-04-22T08:20:50;100461.34;;;16.52;99.99
65760;BME280;52496;51.082;5.066;2023-04-22T08:23:21;100451.06;;;16.85;99.97
65760;BME280;52496;51.082;5.066;2023-04-22T08:25:51;100461.72;;;17.15;94.65
65760;BME280;52496;51.082;5.066;2023-04-22T08:28:22;100454.16;;;17.40;94.06
65760;BME280;52496;51.082;5.066;2023-04-22T08:30:52;100441.88;;;17.61;90.96
65760;BME280;52496;51.082;5.066;2023-04-22T08:33:26;100445.47;;;17.79;88.83
65760;BME280;52496;51.082;5.066;2023-04-22T08:35:57;100450.47;;;17.99;89.31
65760;BME280;52496;51.082;5.066;2023-04-22T08:38:29;100458.50;;;18.10;88.00
65760;BME280;52496;51.082;5.066;2023-04-22T08:41:00;100451.53;;;18.15;86.34
65760;BME280;52496;51.082;5.066;2023-04-22T08:43:54;100455.41;;;18.19;88.90
65760;BME280;52496;51.082;5.066;2023-04-22T08:46:26;100463.13;;;18.27;86.98
65760;BME280;52496;51.082;5.066;2023-04-22T08:48:58;100467.66;;;18.38;84.49
65760;BME280;52496;51.082;5.066;2023-04-22T08:51:35;100471.50;;;18.59;84.51
65760;BME280;52496;51.082;5.066;2023-04-22T08:54:06;100469.63;;;18.60;82.45
65760;BME280;52496;51.082;5.066;2023-04-22T08:56:40;100469.84;;;18.58;81.06
65760;BME280;52496;51.082;5.066;2023-04-22T08:59:12;100464.94;;;18.72;82.54
65760;BME280;52496;51.082;5.066;2023-04-22T09:01:43;100464.63;;;18.85;80.77
65760;BME280;52496;51.082;5.066;2023-04-22T09:04:15;100467.31;;;19.02;79.11
65760;BME280;52496;51.082;5.066;2023-04-22T09:06:47;100466.53;;;19.23;79.70
65760;BME280;52496;51.082;5.066;2023-04-22T09:09:19;100466.66;;;19.34;77.39
65760;BME280;52496;51.082;5.066;2023-04-22T09:11:50;100461.16;;;19.29;75.96
65760;BME280;52496;51.082;5.066;2023-04-22T09:14:21;100448.09;;;19.25;75.67
65760;BME280;52496;51.082;5.066;2023-04-22T09:16:52;100449.88;;;19.37;75.40
65760;BME280;52496;51.082;5.066;2023-04-22T09:19:23;100442.03;;;19.62;74.60
65760;BME280;52496;51.082;5.066;2023-04-22T09:21:57;100460.03;;;19.90;75.94
65760;BME280;52496;51.082;5.066;2023-04-22T09:24:28;100464.16;;;19.98;73.73
65760;BME280;52496;51.082;5.066;2023-04-22T09:27:00;100456.00;;;19.98;72.03
65760;BME280;52496;51.082;5.066;2023-04-22T09:29:32;100449.56;;;20.04;74.15
65760;BME280;52496;51.082;5.066;2023-04-22T09:32:11;100444.13;;;20.04;71.41
65760;BME280;52496;51.082;5.066;2023-04-22T09:34:49;100437.50;;;20.22;78.17
65760;BME280;52496;51.082;5.066;2023-04-22T09:37:24;100428.47;;;20.44;70.90
65760;BME280;52496;51.082;5.066;2023-04-22T09:39:55;100434.31;;;20.62;72.86
65760;BME280;52496;51.082;5.066;2023-04-22T09:42:25;100425.56;;;20.93;74.54
65760;BME280;52496;51.082;5.066;2023-04-22T09:44:57;100428.13;;;21.20;70.16
65760;BME280;52496;51.082;5.066;2023-04-22T09:47:34;100432.81;;;21.35;70.49
65760;BME280;52496;51.082;5.066;2023-04-22T09:50:06;100436.97;;;21.47;68.26
65760;BME280;52496;51.082;5.066;2023-04-22T09:52:36;100437.00;;;21.58;66.70
65760;BME280;52496;51.082;5.066;2023-04-22T09:55:08;100422.34;;;21.69;68.31
65760;BME280;52496;51.082;5.066;2023-04-22T09:57:39;100428.34;;;21.66;68.85
65760;BME280;52496;51.082;5.066;2023-04-22T10:00:11;100431.56;;;21.52;69.56
65760;BME280;52496;51.082;5.066;2023-04-22T10:02:44;100424.63;;;21.29;66.36
65760;BME280;52496;51.082;5.066;2023-04-22T10:05:14;100430.22;;;20.97;68.35
65760;BME280;52496;51.082;5.066;2023-04-22T10:07:45;100436.56;;;20.71;68.16
65760;BME280;52496;51.082;5.066;2023-04-22T10:10:16;100439.63;;;20.47;69.93
65760;BME280;52496;51.082;5.066;2023-04-22T10:12:46;100443.19;;;20.21;71.92
65760;BME280;52496;51.082;5.066;2023-04-22T10:15:18;100440.25;;;19.95;72.02
65760;BME280;52496;51.082;5.066;2023-04-22T10:17:51;100443.22;;;19.66;74.71
65760;BME280;52496;51.082;5.066;2023-04-22T10:20:22;100449.94;;;19.42;77.13
65760;BME280;52496;51.082;5.066;2023-04-22T10:22:55;100444.50;;;19.20;77.94
65760;BME280;52496;51.082;5.066;2023-04-22T10:25:26;100429.44;;;19.07;80.86
65760;BME280;52496;51.082;5.066;2023-04-22T10:28:04;100426.66;;;19.02;81.87
65760;BME280;52496;51.082;5.066;2023-04-22T10:30:37;100429.31;;;18.97;82.16
65760;BME280;52496;51.082;5.066;2023-04-22T10:41:24;100446.56;;;18.74;84.32
65760;BME280;52496;51.082;5.066;2023-04-22T10:43:58;100445.41;;;18.53;86.19
65760;BME280;52496;51.082;5.066;2023-04-22T10:49:17;100443.84;;;18.23;91.22
65760;BME280;52496;51.082;5.066;2023-04-22T10:51:56;100443.44;;;18.15;92.40
65760;BME280;52496;51.082;5.066;2023-04-22T10:57:13;100452.16;;;17.76;92.63
65760;BME280;52496;51.082;5.066;2023-04-22T11:02:19;100463.09;;;17.41;93.67
65760;BME280;52496;51.082;5.066;2023-04-22T11:05:18;100455.25;;;17.28;96.50
65760;BME280;52496;51.082;5.066;2023-04-22T11:07:50;100459.72;;;17.22;98.20
65760;BME280;52496;51.082;5.066;2023-04-22T11:13:14;100459.81;;;17.27;97.14
65760;BME280;52496;51.082;5.066;2023-04-22T11:15:47;100457.91;;;17.39;99.02
65760;BME280;52496;51.082;5.066;2023-04-22T11:18:22;100461.56;;;17.45;99.12
65760;BME280;52496;51.082;5.066;2023-04-22T11:20:55;100456.28;;;17.38;98.36
65760;BME280;52496;51.082;5.066;2023-04-22T11:23:27;100448.06;;;17.33;98.67
65760;BME280;52496;51.082;5.066;2023-04-22T11:26:04;100454.63;;;17.37;99.46
65760;BME280;52496;51.082;5.066;2023-04-22T11:28:44;100453.19;;;17.47;100.00
65760;BME280;52496;51.082;5.066;2023-04-22T11:31:14;100460.44;;;17.58;99.69
65760;BME280;52496;51.082;5.066;2023-04-22T11:33:45;100454.44;;;17.56;98.07
65760;BME280;52496;51.082;5.066;2023-04-22T11:36:16;100446.25;;;17.51;98.97
65760;BME280;52496;51.082;5.066;2023-04-22T11:38:57;100455.78;;;17.53;97.46
65760;BME280;52496;51.082;5.066;2023-04-22T11:41:27;100454.94;;;17.53;95.26
65760;BME280;52496;51.082;5.066;2023-04-22T11:43:59;100456.16;;;17.45;94.87
65760;BME280;52496;51.082;5.066;2023-04-22T11:46:30;100459.13;;;17.32;96.37
65760;BME280;52496;51.082;5.066;2023-04-22T11:49:13;100465.97;;;17.23;97.15
65760;BME280;52496;51.082;5.066;2023-04-22T11:51:54;100463.34;;;17.16;97.24
65760;BME280;52496;51.082;5.066;2023-04-22T11:54:33;100455.97;;;17.11;98.06
65760;BME280;52496;51.082;5.066;2023-04-22T11:57:07;100460.69;;;17.04;97.30
65760;BME280;52496;51.082;5.066;2023-04-22T11:59:38;100469.28;;;16.89;100.00
65760;BME280;52496;51.082;5.066;2023-04-22T12:02:09;100461.97;;;16.78;100.00
65760;BME280;52496;51.082;5.066;2023-04-22T12:04:40;100463.34;;;16.69;100.00
65760;BME280;52496;51.082;5.066;2023-04-22T12:07:11;100475.09;;;16.63;100.00
65760;BME280;52496;51.082;5.066;2023-04-22T12:09:41;100469.47;;;16.52;100.00
65760;BME280;52496;51.082;5.066;2023-04-22T12:12:13;100472.84;;;16.48;100.00
65760;BME280;52496;51.082;5.066;2023-04-22T12:14:44;100463.47;;;16.50;100.00
65760;BME280;52496;51.082;5.066;2023-04-22T12:17:24;100473.94;;;16.59;100.00
65760;BME280;52496;51.082;5.066;2023-04-22T12:19:55;100469.69;;;16.63;100.00
65760;BME280;52496;51.082;5.066;2023-04-22T12:22:29;100472.16;;;16.64;100.00
65760;BME280;52496;51.082;5.066;2023-04-22T12:24:59;100474.63;;;16.66;100.00
65760;BME280;52496;51.082;5.066;2023-04-22T12:27:30;100474.28;;;16.62;100.00
65760;BME280;52496;51.082;5.066;2023-04-22T12:30:01;100482.50;;;16.56;100.00
65760;BME280;52496;51.082;5.066;2023-04-22T12:32:32;100484.09;;;16.45;100.00
65760;BME280;52496;51.082;5.066;2023-04-22T12:35:03;100477.19;;;16.37;100.00
65760;BME280;52496;51.082;5.066;2023-04-22T12:37:34;100472.94;;;16.41;100.00
65760;BME280;52496;51.082;5.066;2023-04-22T12:40:05;100471.69;;;16.56;100.00
65760;BME280;52496;51.082;5.066;2023-04-22T12:42:36;100478.03;;;16.73;100.00
65760;BME280;52496;51.082;5.066;2023-04-22T12:45:07;100481.47;;;16.80;100.00
65760;BME280;52496;51.082;5.066;2023-04-22T12:47:38;100473.13;;;16.82;100.00
65760;BME280;52496;51.082;5.066;2023-04-22T12:50:09;100462.47;;;16.87;100.00
65760;BME280;52496;51.082;5.066;2023-04-22T12:52:39;100468.81;;;16.92;100.00
65760;BME280;52496;51.082;5.066;2023-04-22T12:55:10;100470.66;;;17.04;100.00
65760;BME280;52496;51.082;5.066;2023-04-22T12:57:41;100464.69;;;17.13;100.00
65760;BME280;52496;51.082;5.066;2023-04-22T13:00:12;100467.34;;;17.25;100.00
65760;BME280;52496;51.082;5.066;2023-04-22T13:02:45;100474.28;;;17.33;100.00
65760;BME280;52496;51.082;5.066;2023-04-22T13:05:18;100485.22;;;17.26;100.00
65760;BME280;52496;51.082;5.066;2023-04-22T13:07:48;100491.31;;;17.10;100.00
65760;BME280;52496;51.082;5.066;2023-04-22T13:10:19;100495.81;;;16.92;100.00
65760;BME280;52496;51.082;5.066;2023-04-22T13:12:52;100490.63;;;16.79;100.00
65760;BME280;52496;51.082;5.066;2023-04-22T13:15:23;100498.59;;;16.74;100.00
65760;BME280;52496;51.082;5.066;2023-04-22T13:17:55;100495.06;;;16.62;100.00
65760;BME280;52496;51.082;5.066;2023-04-22T13:20:26;100495.84;;;16.50;100.00
65760;BME280;52496;51.082;5.066;2023-04-22T13:22:56;100490.66;;;16.37;100.00
65760;BME280;52496;51.082;5.066;2023-04-22T13:25:27;100497.06;;;16.24;100.00
65760;BME280;52496;51.082;5.066;2023-04-22T13:27:58;100482.50;;;16.14;100.00